createdAt,value
2023-02-09T00:01:23.251Z,-2.30
2023-02-09T00:03:50.563Z,-2.40
2023-02-09T00:06:20.308Z,-2.40
2023-02-09T00:08:47.983Z,-2.30
2023-02-09T00:11:47.633Z,-2.40
2023-02-09T00:14:16.860Z,-2.50
2023-02-09T00:16:44.226Z,-2.50
2023-02-09T00:19:12.105Z,-2.50
2023-02-09T00:21:39.976Z,-2.50
2023-02-09T00:24:08.275Z,-2.40
2023-02-09T00:26:35.052Z,-2.40
2023-02-09T00:29:01.876Z,-2.20
2023-02-09T00:31:28.826Z,-2.30
2023-02-09T00:33:55.629Z,-2.30
2023-02-09T00:36:22.582Z,-2.40
2023-02-09T00:38:49.494Z,-2.50
2023-02-09T00:41:17.322Z,-2.60
2023-02-09T00:43:44.364Z,-2.60
2023-02-09T00:46:11.410Z,-2.60
2023-02-09T00:48:38.408Z,-2.50
2023-02-09T00:51:05.416Z,-2.50
2023-02-09T00:53:32.200Z,-2.50
2023-02-09T00:56:00.332Z,-2.60
2023-02-09T00:58:27.452Z,-2.60
2023-02-09T01:00:54.346Z,-2.70
2023-02-09T01:03:21.217Z,-2.70
2023-02-09T01:05:48.030Z,-2.70
2023-02-09T01:08:14.859Z,-2.60
2023-02-09T01:10:41.719Z,-2.50
2023-02-09T01:13:08.525Z,-2.60
2023-02-09T01:15:35.548Z,-2.60
2023-02-09T01:18:02.488Z,-2.50
2023-02-09T01:20:29.353Z,-2.10
2023-02-09T01:22:56.576Z,-1.90
2023-02-09T01:25:23.318Z,-1.70
2023-02-09T01:27:50.247Z,-1.20
2023-02-09T01:30:17.392Z,-1.00
2023-02-09T01:32:44.445Z,-0.80
2023-02-09T01:35:11.438Z,-0.60
2023-02-09T01:37:38.628Z,-0.60
2023-02-09T01:40:06.137Z,-0.60
2023-02-09T01:42:33.424Z,-0.50
2023-02-09T01:45:16.968Z,-0.50
2023-02-09T01:47:48.598Z,-0.40
2023-02-09T01:50:16.561Z,-0.60
2023-02-09T01:52:45.016Z,-0.50
2023-02-09T01:55:16.100Z,-0.50
2023-02-09T01:57:50.633Z,-0.50
2023-02-09T02:00:20.821Z,-0.60
2023-02-09T02:02:52.652Z,-0.60
2023-02-09T02:05:20.571Z,-0.50
2023-02-09T02:08:07.864Z,-0.60
2023-02-09T02:10:35.010Z,-0.60
2023-02-09T02:13:02.109Z,-0.60
2023-02-09T02:15:56.548Z,-0.70
2023-02-09T02:18:40.541Z,-0.60
2023-02-09T02:21:34.450Z,-0.70
2023-02-09T02:24:01.244Z,-0.50
2023-02-09T02:26:51.360Z,-0.60
2023-02-09T02:29:53.528Z,-0.70
2023-02-09T02:32:39.034Z,-0.60
2023-02-09T02:35:11.592Z,-0.70
2023-02-09T02:37:59.689Z,-0.50
2023-02-09T02:40:45.293Z,-0.40
2023-02-09T02:43:43.297Z,-0.60
2023-02-09T02:46:19.070Z,-0.60
2023-02-09T02:49:00.441Z,-0.60
2023-02-09T02:51:31.976Z,-0.70
2023-02-09T02:54:02.822Z,-0.70
2023-02-09T02:56:42.733Z,-0.70
2023-02-09T02:59:14.068Z,-0.60
2023-02-09T03:02:08.945Z,-0.70
2023-02-09T03:04:38.645Z,-0.70
2023-02-09T03:07:06.784Z,-0.70
2023-02-09T03:09:33.912Z,-0.60
2023-02-09T03:12:27.136Z,-0.40
2023-02-09T03:21:49.614Z,-0.60
2023-02-09T03:24:34.422Z,-0.60
2023-02-09T03:27:43.648Z,-0.50
2023-02-09T03:30:13.932Z,-0.60
2023-02-09T03:32:42.248Z,-0.50
2023-02-09T03:35:11.502Z,-0.60
2023-02-09T03:37:38.365Z,-0.90
2023-02-09T03:40:05.578Z,-0.60
2023-02-09T03:42:32.468Z,-0.70
2023-02-09T03:44:59.279Z,-0.80
2023-02-09T03:47:26.105Z,-0.80
2023-02-09T03:49:52.960Z,-0.70
2023-02-09T03:52:19.709Z,-0.80
2023-02-09T03:54:47.912Z,-0.80
2023-02-09T03:57:14.875Z,-0.90
2023-02-09T03:59:45.114Z,-0.90
2023-02-09T04:02:13.044Z,-1.10
2023-02-09T04:04:39.916Z,-1.30
2023-02-09T04:07:07.117Z,-1.40
2023-02-09T04:09:34.444Z,-1.50
2023-02-09T04:12:01.595Z,-1.30
2023-02-09T04:14:28.500Z,-1.30
2023-02-09T04:16:55.357Z,-1.00
2023-02-09T04:19:22.272Z,-0.80
2023-02-09T04:21:49.084Z,-1.10
2023-02-09T04:24:15.900Z,-1.10
2023-02-09T04:26:42.662Z,-1.20
2023-02-09T04:29:09.444Z,-1.20
2023-02-09T04:31:36.405Z,-1.30
2023-02-09T04:34:03.249Z,-1.20
2023-02-09T04:36:30.478Z,-1.30
2023-02-09T04:38:57.624Z,-1.20
2023-02-09T04:41:24.403Z,-1.20
2023-02-09T04:43:51.267Z,-1.10
2023-02-09T04:46:18.975Z,-0.80
2023-02-09T04:48:46.703Z,-0.90
2023-02-09T04:51:13.783Z,-0.90
2023-02-09T04:53:40.811Z,-1.00
2023-02-09T04:56:07.977Z,-1.10
2023-02-09T04:58:53.698Z,-1.00
2023-02-09T05:01:24.179Z,-1.00
2023-02-09T05:03:51.336Z,-1.30
2023-02-09T05:06:18.730Z,-1.10
2023-02-09T05:08:45.535Z,-1.10
2023-02-09T05:11:12.685Z,-1.00
2023-02-09T05:13:39.723Z,-1.10
2023-02-09T05:16:13.792Z,-1.20
2023-02-09T05:18:40.877Z,-1.30
2023-02-09T05:21:07.680Z,-1.20
2023-02-09T05:23:34.469Z,-1.10
2023-02-09T05:26:01.516Z,-1.30
2023-02-09T05:28:28.459Z,-1.50
2023-02-09T05:30:55.319Z,-1.40
2023-02-09T05:33:23.917Z,-1.60
2023-02-09T05:35:52.499Z,-1.60
2023-02-09T05:38:19.756Z,-1.50
2023-02-09T05:40:47.236Z,-1.70
2023-02-09T05:43:14.229Z,-1.70
2023-02-09T05:45:41.055Z,-1.30
2023-02-09T05:48:07.951Z,-1.30
2023-02-09T05:50:36.341Z,-1.50
2023-02-09T05:53:03.244Z,-1.50
2023-02-09T05:55:30.263Z,-1.70
2023-02-09T05:57:57.002Z,-1.70
2023-02-09T06:00:25.210Z,-1.50
2023-02-09T06:02:52.175Z,-1.60
2023-02-09T06:05:20.963Z,-1.70
2023-02-09T06:07:48.839Z,-1.60
2023-02-09T06:10:17.042Z,-1.60
2023-02-09T06:12:43.876Z,-1.60
2023-02-09T06:15:10.972Z,-1.70
2023-02-09T06:17:37.944Z,-1.80
2023-02-09T06:20:05.802Z,-1.80
2023-02-09T06:22:32.636Z,-1.70
2023-02-09T06:24:59.480Z,-1.70
2023-02-09T06:27:26.320Z,-1.90
2023-02-09T06:29:53.982Z,-2.10
2023-02-09T06:32:20.890Z,-2.00
2023-02-09T06:34:47.928Z,-2.00
2023-02-09T06:37:14.738Z,-2.00
2023-02-09T06:39:41.964Z,-2.00
2023-02-09T06:42:09.413Z,-1.90
2023-02-09T06:44:36.528Z,-2.00
2023-02-09T06:47:04.228Z,-2.00
2023-02-09T06:49:31.049Z,-2.00
2023-02-09T06:51:58.287Z,-1.90
2023-02-09T06:54:25.829Z,-2.00
2023-02-09T06:56:52.673Z,-2.20
2023-02-09T06:59:19.785Z,-2.20
2023-02-09T07:01:49.325Z,-2.30
2023-02-09T07:04:16.277Z,-2.40
2023-02-09T07:06:43.221Z,-2.30
2023-02-09T07:09:10.317Z,-2.20
2023-02-09T07:11:37.411Z,-2.10
2023-02-09T07:14:04.227Z,-2.10
2023-02-09T07:16:32.183Z,-2.00
2023-02-09T07:19:00.425Z,-2.00
2023-02-09T07:21:27.486Z,-1.90
2023-02-09T07:23:54.404Z,-1.90
2023-02-09T07:26:21.188Z,-1.70
2023-02-09T07:28:48.065Z,-1.60
2023-02-09T07:31:16.311Z,-1.60
2023-02-09T07:33:43.487Z,-1.60
2023-02-09T07:36:12.993Z,-1.50
2023-02-09T07:38:41.004Z,-1.40
2023-02-09T07:41:12.761Z,-1.30
2023-02-09T07:43:39.982Z,-1.30
2023-02-09T07:46:08.749Z,-1.30
2023-02-09T07:48:36.377Z,-1.30
2023-02-09T07:51:03.354Z,-1.20
2023-02-09T07:53:30.212Z,-1.10
2023-02-09T07:55:57.263Z,-1.00
2023-02-09T07:58:24.448Z,-0.90
2023-02-09T08:00:51.674Z,-0.90
2023-02-09T08:03:23.944Z,-0.70
2023-02-09T08:06:30.395Z,-0.60
2023-02-09T08:09:05.490Z,-0.50
2023-02-09T08:12:03.011Z,-0.40
2023-02-09T08:14:43.328Z,-0.30
2023-02-09T08:17:21.417Z,-0.20
2023-02-09T08:19:51.029Z,-0.20
2023-02-09T08:22:18.103Z,-0.10
2023-02-09T08:24:45.391Z,0.00
2023-02-09T08:27:12.282Z,0.10
2023-02-09T08:29:39.379Z,0.10
2023-02-09T08:32:06.365Z,0.20
2023-02-09T08:34:33.367Z,0.30
2023-02-09T08:37:00.178Z,0.30
2023-02-09T08:39:26.948Z,0.40
2023-02-09T08:41:53.733Z,0.40
2023-02-09T08:44:20.581Z,0.40
2023-02-09T08:46:47.648Z,0.40
2023-02-09T08:49:15.394Z,0.40
2023-02-09T08:51:42.296Z,0.40
2023-02-09T08:54:09.224Z,0.40
2023-02-09T08:56:36.669Z,0.40
2023-02-09T08:59:03.691Z,0.40
2023-02-09T09:01:30.690Z,0.40
2023-02-09T09:03:57.969Z,0.40
2023-02-09T09:06:25.687Z,0.50
2023-02-09T09:08:52.625Z,0.60
2023-02-09T09:11:20.900Z,0.60
2023-02-09T09:13:49.060Z,0.60
2023-02-09T09:16:21.480Z,0.40
2023-02-09T09:18:49.253Z,0.60
2023-02-09T09:21:18.904Z,0.60
2023-02-09T09:23:46.835Z,0.70
2023-02-09T09:26:15.635Z,0.70
2023-02-09T09:28:43.447Z,0.70
2023-02-09T09:31:16.547Z,0.70
2023-02-09T09:33:44.027Z,0.80
2023-02-09T09:36:11.930Z,0.80
2023-02-09T09:38:39.615Z,0.90
2023-02-09T09:41:21.203Z,1.00
2023-02-09T09:43:48.957Z,1.00
2023-02-09T09:46:20.361Z,1.00
2023-02-09T09:48:56.684Z,1.00
2023-02-09T09:51:44.031Z,1.10
2023-02-09T09:54:24.599Z,1.10
2023-02-09T09:56:53.268Z,1.10
2023-02-09T09:59:48.325Z,1.20
2023-02-09T10:02:23.562Z,1.30
2023-02-09T10:04:51.392Z,1.40
2023-02-09T10:07:23.623Z,1.50
2023-02-09T10:09:57.742Z,1.50
2023-02-09T10:12:38.891Z,1.50
2023-02-09T10:15:28.140Z,1.50
2023-02-09T10:17:57.019Z,1.60
2023-02-09T10:20:49.233Z,1.60
2023-02-09T10:23:20.926Z,1.70
2023-02-09T10:26:02.425Z,1.80
2023-02-09T10:28:33.188Z,1.90
2023-02-09T10:31:03.657Z,1.90
2023-02-09T10:33:42.290Z,1.90
2023-02-09T10:36:27.964Z,1.90
2023-02-09T10:39:24.081Z,1.90
2023-02-09T10:41:55.984Z,1.90
2023-02-09T10:44:30.658Z,1.90
2023-02-09T10:47:16.386Z,2.10
2023-02-09T10:49:44.756Z,2.20
2023-02-09T10:52:16.788Z,2.10
2023-02-09T10:55:07.531Z,2.30
2023-02-09T10:57:36.860Z,2.30
2023-02-09T11:00:32.354Z,2.40
2023-02-09T11:03:04.104Z,2.30
2023-02-09T11:05:34.843Z,2.40
2023-02-09T11:08:06.764Z,2.50
2023-02-09T11:10:38.865Z,2.70
2023-02-09T11:13:19.684Z,2.80
2023-02-09T11:16:05.292Z,2.80
2023-02-09T11:18:36.023Z,2.80
2023-02-09T11:21:12.900Z,2.70
2023-02-09T11:23:51.067Z,2.90
2023-02-09T11:26:43.308Z,2.90
2023-02-09T11:29:30.762Z,2.90
2023-02-09T11:32:03.772Z,2.90
2023-02-09T11:34:43.247Z,2.90
2023-02-09T11:37:39.240Z,3.00
2023-02-09T11:40:29.264Z,3.10
2023-02-09T11:43:07.069Z,3.00
2023-02-09T11:45:36.796Z,3.00
2023-02-09T11:48:35.764Z,3.20
2023-02-09T11:51:12.758Z,3.20
2023-02-09T11:54:05.643Z,3.20
2023-02-09T11:56:40.002Z,3.20
2023-02-09T11:59:31.005Z,3.20
2023-02-09T12:02:30.374Z,3.30
2023-02-09T12:05:03.207Z,3.30
2023-02-09T12:07:35.247Z,3.40
2023-02-09T12:10:24.398Z,3.50
2023-02-09T12:13:17.202Z,3.60
2023-02-09T12:15:52.202Z,3.60
2023-02-09T12:18:23.217Z,3.60
2023-02-09T12:21:00.362Z,3.60
2023-02-09T12:23:42.877Z,3.60
2023-02-09T12:26:13.585Z,3.70
2023-02-09T12:29:07.597Z,3.80
2023-02-09T12:32:13.859Z,4.00
2023-02-09T12:34:45.544Z,4.10
2023-02-09T12:37:28.132Z,4.20
2023-02-09T12:40:07.864Z,4.10
2023-02-09T12:42:44.348Z,4.10
2023-02-09T12:45:38.086Z,4.10
2023-02-09T12:48:10.136Z,4.00
2023-02-09T12:50:43.797Z,4.10
2023-02-09T12:53:22.976Z,4.20
2023-02-09T12:56:22.865Z,4.20
2023-02-09T12:58:50.990Z,4.10
2023-02-09T13:01:19.024Z,4.10
2023-02-09T13:04:09.922Z,4.20
2023-02-09T13:06:53.385Z,4.10
2023-02-09T13:09:33.337Z,4.30
2023-02-09T13:12:23.709Z,4.30
2023-02-09T13:14:51.721Z,4.20
2023-02-09T13:17:49.020Z,4.40
2023-02-09T13:20:34.934Z,4.40
2023-02-09T13:23:20.557Z,4.30
2023-02-09T13:25:48.948Z,4.30
2023-02-09T13:28:23.563Z,4.40
2023-02-09T13:30:53.321Z,4.50
2023-02-09T13:33:51.555Z,4.50
2023-02-09T13:36:48.020Z,4.50
2023-02-09T13:39:28.191Z,4.40
2023-02-09T13:41:56.107Z,4.20
2023-02-09T13:44:26.156Z,4.30
2023-02-09T13:47:00.987Z,4.30
2023-02-09T13:49:31.609Z,4.40
2023-02-09T13:52:14.439Z,4.40
2023-02-09T13:54:42.598Z,4.40
2023-02-09T13:57:36.704Z,4.40
2023-02-09T14:00:24.267Z,4.40
2023-02-09T14:03:16.904Z,4.40
2023-02-09T14:06:02.378Z,4.40
2023-02-09T14:08:32.491Z,4.40
2023-02-09T14:11:18.123Z,4.40
2023-02-09T14:13:50.731Z,4.40
2023-02-09T14:16:24.119Z,4.40
2023-02-09T14:19:00.404Z,4.30
2023-02-09T14:21:40.566Z,4.30
2023-02-09T14:24:14.256Z,4.30
2023-02-09T14:26:50.656Z,4.40
2023-02-09T14:29:34.644Z,4.40
2023-02-09T14:32:33.208Z,4.30
2023-02-09T14:35:23.005Z,4.30
2023-02-09T14:37:55.446Z,4.20
2023-02-09T14:40:27.612Z,4.10
2023-02-09T14:43:02.987Z,4.10
2023-02-09T14:45:47.048Z,4.20
2023-02-09T14:48:26.507Z,4.20
2023-02-09T14:50:57.914Z,4.10
2023-02-09T14:53:32.822Z,4.10
2023-02-09T14:56:00.184Z,4.10
2023-02-09T14:58:35.369Z,4.00
2023-02-09T15:01:04.080Z,3.90
2023-02-09T15:03:32.061Z,3.90
2023-02-09T15:06:03.334Z,3.90
2023-02-09T15:08:36.019Z,3.90
2023-02-09T15:11:27.911Z,3.80
2023-02-09T15:14:04.087Z,3.80
2023-02-09T15:16:32.519Z,3.70
2023-02-09T15:18:59.603Z,3.70
2023-02-09T15:21:26.698Z,3.70
2023-02-09T15:23:54.219Z,3.70
2023-02-09T15:26:23.313Z,3.60
2023-02-09T15:28:50.592Z,3.60
2023-02-09T15:31:17.583Z,3.60
2023-02-09T15:33:45.476Z,3.60
2023-02-09T15:36:19.928Z,3.50
2023-02-09T15:38:47.609Z,3.50
2023-02-09T15:41:35.981Z,3.50
2023-02-09T15:44:38.053Z,3.40
2023-02-09T15:47:24.351Z,3.30
2023-02-09T15:49:51.452Z,3.30
2023-02-09T15:52:19.113Z,3.20
2023-02-09T15:54:46.541Z,3.10
2023-02-09T15:57:15.283Z,3.30
2023-02-09T15:59:42.846Z,3.10
2023-02-09T16:02:14.703Z,3.00
2023-02-09T16:04:41.735Z,3.00
2023-02-09T16:07:20.383Z,3.00
2023-02-09T16:09:47.881Z,3.00
2023-02-09T16:12:16.663Z,2.80
2023-02-09T16:14:43.616Z,2.80
2023-02-09T16:17:10.587Z,2.80
2023-02-09T16:19:37.492Z,2.80
2023-02-09T16:22:07.299Z,2.60
2023-02-09T16:24:40.699Z,2.50
2023-02-09T16:27:28.069Z,2.60
2023-02-09T16:29:56.338Z,2.60
2023-02-09T16:32:25.079Z,2.60
2023-02-09T16:34:52.343Z,2.60
2023-02-09T16:37:31.884Z,2.50
2023-02-09T16:39:59.394Z,2.40
2023-02-09T16:42:29.519Z,2.20
2023-02-09T16:45:00.223Z,2.10
2023-02-09T16:47:28.991Z,2.20
2023-02-09T16:50:00.843Z,2.10
2023-02-09T16:52:30.436Z,1.90
2023-02-09T16:55:05.682Z,2.00
2023-02-09T16:57:32.654Z,2.00
2023-02-09T16:59:59.956Z,2.10
2023-02-09T17:02:40.957Z,1.70
2023-02-09T17:05:17.248Z,1.70
2023-02-09T17:07:53.936Z,1.60
2023-02-09T17:10:26.017Z,1.50
2023-02-09T17:12:53.870Z,1.40
2023-02-09T17:15:30.130Z,1.30
2023-02-09T17:18:03.286Z,1.20
2023-02-09T17:20:37.765Z,1.50
2023-02-09T17:23:05.741Z,1.60
2023-02-09T17:25:33.430Z,1.80
2023-02-09T17:28:00.460Z,2.10
2023-02-09T17:30:27.663Z,2.00
2023-02-09T17:33:01.494Z,2.00
2023-02-09T17:35:57.944Z,1.90
2023-02-09T17:38:40.895Z,2.00
2023-02-09T17:41:20.489Z,2.00
2023-02-09T17:43:49.486Z,2.00
2023-02-09T17:46:21.286Z,1.90
2023-02-09T17:48:48.833Z,2.00
2023-02-09T17:51:31.278Z,2.40
2023-02-09T17:53:58.192Z,2.50
2023-02-09T17:56:24.994Z,2.50
2023-02-09T17:58:51.849Z,2.50
2023-02-09T18:01:26.936Z,2.40
2023-02-09T18:03:59.620Z,2.60
2023-02-09T18:06:38.143Z,2.70
2023-02-09T18:09:08.599Z,2.60
2023-02-09T18:11:58.870Z,2.70
2023-02-09T18:14:26.776Z,2.90
2023-02-09T18:16:55.137Z,2.90
2023-02-09T18:19:23.667Z,2.90
2023-02-09T18:21:52.008Z,2.90
2023-02-09T18:24:20.768Z,3.10
2023-02-09T18:26:49.688Z,3.00
2023-02-09T18:29:17.174Z,3.00
2023-02-09T18:31:44.357Z,3.00
2023-02-09T18:34:11.288Z,3.10
2023-02-09T18:36:38.128Z,3.20
2023-02-09T18:39:05.096Z,3.10
2023-02-09T18:41:32.124Z,3.10
2023-02-09T18:43:59.233Z,3.10
2023-02-09T18:46:27.275Z,3.10
2023-02-09T18:48:54.921Z,3.10
2023-02-09T18:51:22.359Z,3.00
2023-02-09T18:53:51.371Z,3.00
2023-02-09T18:56:22.496Z,2.90
2023-02-09T18:58:53.290Z,2.90
2023-02-09T19:01:22.365Z,2.90
2023-02-09T19:03:50.847Z,2.90
2023-02-09T19:06:20.510Z,2.90
2023-02-09T19:08:48.324Z,2.90
2023-02-09T19:11:21.972Z,2.80
2023-02-09T19:14:07.819Z,2.80
2023-02-09T19:16:37.256Z,2.80
2023-02-09T19:19:04.352Z,2.80
2023-02-09T19:21:32.427Z,2.70
2023-02-09T19:23:59.234Z,2.70
2023-02-09T19:26:26.355Z,2.70
2023-02-09T19:28:55.832Z,2.70
2023-02-09T19:31:22.691Z,2.70
2023-02-09T19:33:49.627Z,2.70
2023-02-09T19:36:16.784Z,2.60
2023-02-09T19:38:43.854Z,2.60
2023-02-09T19:41:13.059Z,2.60
2023-02-09T19:43:40.622Z,2.60
2023-02-09T19:46:10.015Z,2.60
2023-02-09T19:48:40.457Z,2.70
2023-02-09T19:51:08.570Z,2.70
2023-02-09T19:53:35.496Z,2.70
2023-02-09T19:56:03.158Z,2.70
2023-02-09T19:58:30.484Z,2.70
2023-02-09T20:00:57.629Z,2.70
2023-02-09T20:03:25.014Z,2.60
2023-02-09T20:05:52.104Z,2.70
2023-02-09T20:08:20.140Z,2.70
2023-02-09T20:10:48.073Z,2.70
2023-02-09T20:13:16.555Z,2.70
2023-02-09T20:15:44.538Z,2.70
2023-02-09T20:18:13.673Z,2.80
2023-02-09T20:20:43.406Z,2.70
2023-02-09T20:23:10.644Z,2.70
2023-02-09T20:25:41.616Z,2.60
2023-02-09T20:28:08.861Z,2.50
2023-02-09T20:30:35.763Z,2.40
2023-02-09T20:33:02.844Z,2.30
2023-02-09T20:35:30.053Z,2.30
2023-02-09T20:37:56.990Z,2.30
2023-02-09T20:40:23.929Z,2.30
2023-02-09T20:43:09.554Z,2.20
2023-02-09T20:45:55.171Z,2.20
2023-02-09T20:48:22.049Z,2.30
2023-02-09T20:50:49.983Z,2.20
2023-02-09T20:53:17.127Z,2.20
2023-02-09T20:55:44.392Z,2.20
2023-02-09T20:58:13.723Z,2.20
2023-02-09T21:00:44.780Z,2.20
2023-02-09T21:03:12.059Z,2.20
2023-02-09T21:05:39.275Z,2.30
2023-02-09T21:08:09.132Z,2.20
2023-02-09T21:10:38.564Z,2.10
2023-02-09T21:13:07.553Z,2.20
2023-02-09T21:15:39.911Z,2.20
2023-02-09T21:18:07.001Z,2.20
2023-02-09T21:20:37.354Z,2.20
2023-02-09T21:23:04.583Z,2.20
2023-02-09T21:25:31.829Z,2.20
2023-02-09T21:28:00.066Z,2.20
2023-02-09T21:30:28.077Z,2.20
2023-02-09T21:32:56.327Z,2.30
2023-02-09T21:35:24.664Z,2.30
2023-02-09T21:37:52.947Z,2.30
2023-02-09T21:40:23.033Z,2.20
2023-02-09T21:42:51.357Z,2.20
2023-02-09T21:45:18.997Z,2.20
2023-02-09T21:47:46.139Z,2.20
2023-02-09T21:50:14.690Z,2.20
2023-02-09T21:52:41.780Z,2.30
2023-02-09T21:55:08.859Z,2.30
2023-02-09T21:57:36.518Z,2.30
2023-02-09T22:00:08.241Z,2.30
2023-02-09T22:02:36.600Z,2.40
2023-02-09T22:05:04.098Z,2.40
2023-02-09T22:07:31.493Z,2.40
2023-02-09T22:09:59.619Z,2.30
2023-02-09T22:12:27.057Z,2.40
2023-02-09T22:14:54.120Z,2.30
2023-02-09T22:17:21.557Z,2.40
2023-02-09T22:19:48.660Z,2.40
2023-02-09T22:22:15.914Z,2.40
2023-02-09T22:24:42.832Z,2.40
2023-02-09T22:27:09.853Z,2.40
2023-02-09T22:29:37.440Z,2.40
2023-02-09T22:32:04.360Z,2.40
2023-02-09T22:34:31.347Z,2.40
2023-02-09T22:36:58.290Z,2.50
2023-02-09T22:39:25.334Z,2.50
2023-02-09T22:41:58.127Z,2.50
2023-02-09T22:44:27.873Z,2.40
2023-02-09T22:46:54.710Z,2.40
2023-02-09T22:49:21.883Z,2.40
2023-02-09T22:51:51.374Z,2.50
2023-02-09T22:54:19.870Z,2.40
2023-02-09T22:56:47.481Z,2.40
2023-02-09T22:59:15.413Z,2.40
2023-02-09T23:01:43.000Z,2.40
2023-02-09T23:04:10.055Z,2.40
2023-02-09T23:06:37.361Z,2.40
2023-02-09T23:09:07.450Z,2.30
2023-02-09T23:11:35.020Z,2.30
2023-02-09T23:14:10.798Z,2.30
2023-02-09T23:16:40.102Z,2.30
2023-02-09T23:19:09.714Z,2.30
2023-02-09T23:21:39.696Z,2.30
2023-02-09T23:24:07.339Z,2.30
2023-02-09T23:26:35.242Z,2.30
2023-02-09T23:29:05.031Z,2.30
2023-02-09T23:31:32.223Z,2.40
2023-02-09T23:33:59.417Z,2.40
2023-02-09T23:36:28.959Z,2.40
2023-02-09T23:38:58.124Z,2.40
2023-02-09T23:41:26.212Z,2.40
2023-02-09T23:43:54.494Z,2.40
2023-02-09T23:46:25.433Z,2.40
2023-02-09T23:48:54.777Z,2.50
2023-02-09T23:51:28.478Z,2.40
2023-02-09T23:53:57.295Z,2.40
2023-02-09T23:56:24.604Z,2.40
2023-02-09T23:58:52.804Z,2.40
